Time;durP1;ratioP1;P1;durP2;ratioP2;P2;SDS_P1;SDS_P2;PMS_P1;PMS_P2;Temp;Humidity;BMP_temperature;BMP_pressure;BME280_temperature;BME280_humidity;BME280_pressure;Samples;Min_cycle;Max_cycle;Signal;HPM_P1;HPM_P2
2022/02/18 00:01:52;;;;;;;4.08;1.47;;;;;;;4.78;100.00;97171.86;1683662;84;20578;-60
2022/02/18 00:04:18;;;;;;;2.60;1.27;;;;;;;4.75;100.00;97170.53;1687578;84;21555;-61
2022/02/18 00:06:46;;;;;;;3.90;1.40;;;;;;;4.72;100.00;97178.41;1683919;83;21023;-60
2022/02/18 00:09:12;;;;;;;1.82;1.05;;;;;;;4.70;100.00;97179.27;1672883;84;21933;-61
2022/02/18 00:11:40;;;;;;;3.00;1.45;;;;;;;4.73;100.00;97171.39;1680085;85;21094;-60
2022/02/18 00:14:07;;;;;;;2.80;1.50;;;;;;;4.72;100.00;97187.30;1680757;84;21004;-61
2022/02/18 00:16:34;;;;;;;2.72;1.20;;;;;;;4.71;100.00;97187.04;1698453;84;21038;-59
2022/02/18 00:19:00;;;;;;;3.02;1.15;;;;;;;4.66;100.00;97189.03;1678053;84;21035;-60
2022/02/18 00:21:28;;;;;;;2.80;1.22;;;;;;;4.61;100.00;97189.91;1710625;84;21490;-60
2022/02/18 00:23:54;;;;;;;2.42;1.27;;;;;;;4.61;100.00;97203.37;1692735;84;21026;-59
2022/02/18 00:26:21;;;;;;;3.55;1.50;;;;;;;4.59;100.00;97200.20;1707338;84;21050;-60
2022/02/18 00:28:49;;;;;;;3.15;1.30;;;;;;;4.59;100.00;97210.17;1684894;85;21057;-60
2022/02/18 00:31:15;;;;;;;2.40;1.22;;;;;;;4.54;100.00;97208.34;1690040;84;21046;-60
2022/02/18 00:33:42;;;;;;;3.72;1.37;;;;;;;4.45;100.00;97213.62;1698914;84;21016;-60
2022/02/18 00:36:10;;;;;;;2.20;1.10;;;;;;;4.45;100.00;97214.97;1705447;84;21022;-59
2022/02/18 00:38:36;;;;;;;3.27;1.32;;;;;;;4.45;100.00;97218.20;1707182;84;21042;-60
2022/02/18 00:41:06;;;;;;;2.50;1.25;;;;;;;4.44;100.00;97225.48;1677184;85;21038;-60
2022/02/18 00:43:32;;;;;;;3.83;1.42;;;;;;;4.43;100.00;97223.88;1700627;84;21133;-60
2022/02/18 00:46:00;;;;;;;3.92;1.40;;;;;;;4.38;100.00;97229.35;1689803;84;21087;-60
2022/02/18 00:48:27;;;;;;;2.75;1.20;;;;;;;4.39;100.00;97230.93;1704543;84;21058;-60
2022/02/18 00:50:54;;;;;;;3.40;1.40;;;;;;;4.39;100.00;97230.16;1710473;84;21491;-60
2022/02/18 00:53:21;;;;;;;2.58;1.20;;;;;;;4.39;100.00;97236.31;1687745;84;21144;-60
2022/02/18 00:55:49;;;;;;;3.45;1.65;;;;;;;4.40;100.00;97247.36;1684977;84;21015;-59
2022/02/18 00:58:16;;;;;;;3.42;1.60;;;;;;;4.40;100.00;97247.89;1694089;84;21055;-59
2022/02/18 01:00:43;;;;;;;4.95;2.25;;;;;;;4.39;100.00;97256.52;1690367;84;20998;-60
2022/02/18 01:03:10;;;;;;;7.58;2.30;;;;;;;4.38;100.00;97250.90;1692407;84;21055;-60
2022/02/18 01:05:37;;;;;;;6.80;2.47;;;;;;;4.39;100.00;97252.48;1702508;83;21041;-60
2022/02/18 01:08:04;;;;;;;3.35;1.80;;;;;;;4.39;100.00;97259.21;1690723;84;21123;-59
2022/02/18 01:10:31;;;;;;;4.85;2.15;;;;;;;4.40;100.00;97261.36;1679165;84;21004;-60
2022/02/18 01:12:58;;;;;;;4.47;1.82;;;;;;;4.42;100.00;97263.23;1689212;84;21065;-60
2022/02/18 01:15:26;;;;;;;3.92;1.95;;;;;;;4.41;100.00;97269.71;1682537;84;21047;-60
2022/02/18 01:17:52;;;;;;;;;;;;;;;4.41;100.00;97275.91;1686116;84;21091;-60
2022/02/18 01:20:21;;;;;;;3.65;1.90;;;;;;;4.40;100.00;97274.29;1689572;84;20118;-60
2022/02/18 01:22:49;;;;;;;3.70;1.70;;;;;;;4.37;100.00;97276.77;1684472;84;21071;-60
2022/02/18 01:25:15;;;;;;;3.33;1.75;;;;;;;4.39;100.00;97290.19;1673039;84;21027;-60
2022/02/18 01:27:44;;;;;;;4.60;1.77;;;;;;;4.41;100.00;97297.99;1680302;84;21086;-60
2022/02/18 01:30:10;;;;;;;3.22;1.57;;;;;;;4.39;100.00;97292.88;1680298;84;20968;-61
2022/02/18 01:32:39;;;;;;;3.42;1.80;;;;;;;4.37;100.00;97298.31;1655720;85;21070;-60
2022/02/18 01:35:07;;;;;;;;;;;;;;;4.37;100.00;97308.55;1691941;84;21537;-60
2022/02/18 01:37:34;;;;;;;2.85;1.40;;;;;;;4.36;100.00;97312.86;1689317;84;20141;-60
2022/02/18 01:40:00;;;;;;;3.92;1.25;;;;;;;4.30;100.00;97312.14;1681609;84;20983;-60
2022/02/18 01:42:26;;;;;;;3.17;1.12;;;;;;;4.27;100.00;97322.16;1674396;84;21573;-60
2022/02/18 01:44:53;;;;;;;2.77;1.20;;;;;;;4.24;100.00;97332.16;1674434;84;21075;-60
2022/02/18 01:47:23;;;;;;;2.60;1.05;;;;;;;4.21;100.00;97327.36;1682026;84;21114;-60
2022/02/18 01:49:53;;;;;;;3.25;1.27;;;;;;;4.19;100.00;97336.25;1672937;84;21015;-60
2022/02/18 01:52:20;;;;;;;2.75;1.10;;;;;;;4.18;100.00;97344.64;1680442;84;21095;-60
2022/02/18 01:54:47;;;;;;;3.67;1.02;;;;;;;4.16;100.00;97358.91;1678003;84;20991;-60
2022/02/18 01:57:14;;;;;;;2.83;1.40;;;;;;;4.15;100.00;97356.77;1677955;84;21078;-61
2022/02/18 01:59:40;;;;;;;2.87;1.27;;;;;;;4.16;100.00;97367.80;1687786;84;20967;-60
2022/02/18 02:02:07;;;;;;;;;;;;;;;4.13;100.00;97373.77;1690307;84;21067;-60
2022/02/18 02:06:08;;;;;;;3.17;1.30;;;;;;;4.10;100.00;97373.53;1799814;78;23111;-59
2022/02/18 02:08:36;;;;;;;2.87;1.17;;;;;;;4.00;100.00;97386.00;1737222;81;21079;-59
2022/02/18 02:11:04;;;;;;;1.80;0.70;;;;;;;3.99;100.00;97388.46;1749807;82;21066;-60
2022/02/18 02:13:38;;;;;;;2.20;0.70;;;;;;;3.97;100.00;97401.39;1749613;82;21526;-60
2022/02/18 02:16:13;;;;;;;2.47;0.82;;;;;;;3.95;100.00;97403.58;1745122;81;20983;-60
2022/02/18 02:18:39;;;;;;;2.02;0.93;;;;;;;3.91;100.00;97402.53;1746647;82;21073;-60
2022/02/18 02:21:12;;;;;;;1.95;1.00;;;;;;;3.88;100.00;97436.76;1735899;82;21359;-60
2022/02/18 02:23:41;;;;;;;1.17;0.53;;;;;;;3.82;100.00;97442.47;1745035;82;21046;-60
2022/02/18 02:26:11;;;;;;;1.82;0.90;;;;;;;3.75;100.00;97454.11;1725287;82;21070;-60
2022/02/18 02:28:38;;;;;;;2.00;0.90;;;;;;;3.68;100.00;97473.28;1725778;82;21348;-60
2022/02/18 02:31:05;;;;;;;3.33;0.60;;;;;;;3.64;100.00;97474.11;1723255;82;21070;-59
2022/02/18 02:33:33;;;;;;;1.80;0.60;;;;;;;3.57;100.00;97503.23;1737641;82;21051;-61
2022/02/18 02:36:00;;;;;;;1.92;0.53;;;;;;;3.49;100.00;97513.50;1749972;82;21054;-59
2022/02/18 02:38:27;;;;;;;0.53;0.42;;;;;;;3.43;100.00;97521.89;1737015;82;21063;-59
2022/02/18 02:40:55;;;;;;;0.98;0.30;;;;;;;3.31;100.00;97523.56;1730590;82;21026;-59
2022/02/18 02:43:22;;;;;;;0.70;0.30;;;;;;;3.24;100.00;97531.14;1724049;82;21053;-59
2022/02/18 02:45:49;;;;;;;0.68;0.35;;;;;;;3.16;100.00;97524.99;1726330;82;21039;-59
2022/02/18 02:48:15;;;;;;;1.57;0.40;;;;;;;3.08;100.00;97539.03;1737462;82;21035;-60
2022/02/18 02:50:45;;;;;;;1.50;0.33;;;;;;;3.00;100.00;97535.03;1742206;82;21031;-59
2022/02/18 02:53:12;;;;;;;1.40;0.30;;;;;;;2.98;100.00;97549.81;1741801;82;21441;-59
2022/02/18 02:55:39;;;;;;;0.57;0.23;;;;;;;2.90;100.00;97557.13;1716997;82;21482;-59
2022/02/18 02:58:06;;;;;;;;;;;;;;;2.83;100.00;97562.80;1750079;82;21664;-59
2022/02/18 03:00:33;;;;;;;1.02;0.33;;;;;;;2.79;100.00;97560.92;1726489;82;20097;-59
2022/02/18 03:03:01;;;;;;;2.70;0.40;;;;;;;2.71;100.00;97562.28;1737095;82;21019;-59
2022/02/18 03:05:38;;;;;;;0.98;0.30;;;;;;;2.67;100.00;97567.94;1721037;82;20992;-59
2022/02/18 03:08:06;;;;;;;1.42;0.60;;;;;;;2.65;100.00;97575.48;1734617;82;21004;-59
2022/02/18 03:10:35;;;;;;;4.53;1.60;;;;;;;2.61;100.00;97587.84;1722441;82;21594;-59
2022/02/18 03:13:04;;;;;;;1.37;0.33;;;;;;;2.59;100.00;97590.54;1715870;82;21071;-59
2022/02/18 03:15:32;;;;;;;0.98;0.40;;;;;;;2.57;100.00;97598.86;1718300;82;21541;-59
2022/02/18 03:18:01;;;;;;;1.37;0.40;;;;;;;2.50;100.00;97602.36;1721201;82;21019;-59
2022/02/18 03:20:29;;;;;;;0.78;0.40;;;;;;;2.44;100.00;97610.95;1726489;82;21037;-59
2022/02/18 03:22:56;;;;;;;1.87;0.80;;;;;;;2.43;100.00;97612.05;1715684;82;21511;-60
2022/02/18 03:25:22;;;;;;;2.00;0.93;;;;;;;2.42;100.00;97612.30;1728575;82;21614;-59
2022/02/18 03:27:50;;;;;;;1.80;1.25;;;;;;;2.38;100.00;97619.28;1710655;82;20988;-59
2022/02/18 03:30:19;;;;;;;1.87;1.40;;;;;;;2.32;100.00;97621.72;1713848;82;21059;-59
2022/02/18 03:32:46;;;;;;;1.92;1.42;;;;;;;2.30;100.00;97615.26;1714045;82;21452;-60
2022/02/18 03:35:15;;;;;;;2.87;1.67;;;;;;;2.28;100.00;97619.30;1721557;82;21631;-59
2022/02/18 03:37:44;;;;;;;4.28;2.62;;;;;;;2.25;100.00;97625.20;1726338;82;20988;-59
2022/02/18 03:40:12;;;;;;;5.00;2.33;;;;;;;2.21;100.00;97630.84;1717718;82;21046;-60
2022/02/18 03:42:40;;;;;;;3.55;2.00;;;;;;;2.17;100.00;97637.81;1732038;82;21498;-59
2022/02/18 03:45:07;;;;;;;;;;;;;;;2.14;100.00;97643.73;1723415;82;21562;-58
2022/02/18 03:47:34;;;;;;;4.40;1.60;;;;;;;2.12;100.00;97644.02;1716135;82;20416;-59
2022/02/18 03:50:01;;;;;;;6.20;2.22;;;;;;;2.06;100.00;97653.11;1716338;82;21070;-59
2022/02/18 03:52:28;;;;;;;;;;;;;;;1.99;100.00;97657.41;1723444;82;20988;-59
2022/02/18 03:54:55;;;;;;;3.15;1.55;;;;;;;1.96;100.00;97666.52;1716401;82;20111;-59
2022/02/18 03:57:22;;;;;;;3.50;1.50;;;;;;;1.90;100.00;97666.25;1722809;82;21000;-59
2022/02/18 03:59:49;;;;;;;2.92;1.30;;;;;;;1.87;100.00;97670.28;1734426;82;21035;-59
2022/02/18 04:02:15;;;;;;;;;;;;;;;1.86;100.00;97674.56;1717101;82;20999;-59
2022/02/18 04:04:42;;;;;;;4.05;1.20;;;;;;;1.86;100.00;97677.24;1716559;82;20097;-59
2022/02/18 04:07:21;;;;;;;3.80;1.25;;;;;;;1.82;100.00;97681.52;1723420;82;21044;-60
2022/02/18 04:09:50;;;;;;;4.85;1.60;;;;;;;1.81;100.00;97682.59;1723030;81;21571;-59
2022/02/18 04:12:18;;;;;;;4.25;1.82;;;;;;;1.80;100.00;97685.83;1714976;82;21095;-60
2022/02/18 04:14:46;;;;;;;4.35;1.50;;;;;;;1.82;100.00;97693.59;1718963;82;21633;-59
2022/02/18 04:17:14;;;;;;;3.62;1.60;;;;;;;1.81;100.00;97694.66;1703730;82;21074;-60
2022/02/18 04:19:43;;;;;;;6.10;1.90;;;;;;;1.80;100.00;97690.39;1735964;82;21083;-59
2022/02/18 04:22:10;;;;;;;3.98;1.62;;;;;;;1.81;100.00;97696.00;1731496;82;21059;-59
2022/02/18 04:24:40;;;;;;;3.87;1.40;;;;;;;1.80;100.00;97703.80;1714581;82;21000;-59
2022/02/18 04:27:08;;;;;;;2.95;1.30;;;;;;;1.77;100.00;97706.45;1723639;82;21027;-59
2022/02/18 04:29:35;;;;;;;2.15;1.12;;;;;;;1.78;100.00;97714.78;1719336;82;21464;-59
2022/02/18 04:32:04;;;;;;;4.95;1.27;;;;;;;1.77;100.00;97721.77;1726151;82;21032;-59
2022/02/18 04:34:31;;;;;;;1.52;0.72;;;;;;;1.77;100.00;97731.94;1709042;84;20956;-59
2022/02/18 04:36:57;;;;;;;1.82;0.70;;;;;;;1.76;100.00;97734.90;1733732;82;21028;-59
2022/02/18 04:39:24;;;;;;;1.72;0.60;;;;;;;1.70;100.00;97744.02;1714854;82;20990;-60
2022/02/18 04:41:52;;;;;;;2.60;0.80;;;;;;;1.67;100.00;97743.98;1722861;82;21543;-59
2022/02/18 04:44:18;;;;;;;3.30;0.93;;;;;;;1.70;100.00;97753.39;1719893;82;21444;-59
2022/02/18 04:46:44;;;;;;;1.90;0.80;;;;;;;1.69;100.00;97753.93;1728196;82;21018;-59
2022/02/18 04:49:12;;;;;;;2.35;0.80;;;;;;;1.69;100.00;97753.93;1710108;82;21463;-60
2022/02/18 04:51:38;;;;;;;1.50;0.60;;;;;;;1.70;100.00;97755.52;1717433;82;21554;-59
2022/02/18 04:54:05;;;;;;;1.87;0.80;;;;;;;1.71;100.00;97763.84;1713816;82;20960;-59
2022/02/18 04:56:33;;;;;;;1.87;0.70;;;;;;;1.70;100.00;97770.27;1714972;82;21023;-59
2022/02/18 04:58:59;;;;;;;2.33;0.72;;;;;;;1.70;100.00;97774.86;1719048;82;21491;-60
2022/02/18 05:01:26;;;;;;;2.85;0.70;;;;;;;1.70;100.00;97785.59;1721124;82;21032;-59
2022/02/18 05:03:53;;;;;;;1.98;0.60;;;;;;;1.65;100.00;97793.59;1717040;82;21048;-59
2022/02/18 05:06:20;;;;;;;1.67;0.60;;;;;;;1.63;100.00;97801.11;1724946;82;21019;-59
2022/02/18 05:08:46;;;;;;;1.25;0.50;;;;;;;1.64;100.00;97803.52;1718698;82;21051;-60
2022/02/18 05:11:13;;;;;;;2.33;0.90;;;;;;;1.64;100.00;97807.53;1719145;82;20999;-59
2022/02/18 05:13:41;;;;;;;2.05;0.50;;;;;;;1.66;100.00;97818.83;1733077;82;20999;-59
2022/02/18 05:16:08;;;;;;;1.95;0.70;;;;;;;1.70;100.00;97830.63;1739166;82;21054;-59
2022/02/18 05:18:37;;;;;;;1.72;0.75;;;;;;;1.74;100.00;97833.06;1739947;82;21094;-59
2022/02/18 05:21:04;;;;;;;2.08;0.70;;;;;;;1.77;100.00;97831.20;1723658;82;21632;-59
2022/02/18 05:23:31;;;;;;;2.22;0.88;;;;;;;1.84;100.00;97844.40;1727754;82;21525;-59
2022/02/18 05:25:57;;;;;;;2.65;0.90;;;;;;;1.89;100.00;97849.77;1735887;82;21003;-60
2022/02/18 05:28:24;;;;;;;1.67;0.62;;;;;;;1.93;100.00;97863.75;1731255;82;21004;-59
2022/02/18 05:30:50;;;;;;;2.50;1.15;;;;;;;1.97;100.00;97869.41;1736333;82;21043;-59
2022/02/18 05:33:17;;;;;;;2.50;1.20;;;;;;;1.96;100.00;97874.48;1736546;82;21027;-59
2022/02/18 05:35:43;;;;;;;2.80;1.40;;;;;;;1.94;100.00;97874.77;1745779;82;21030;-59
2022/02/18 05:38:10;;;;;;;3.77;1.40;;;;;;;1.98;100.00;97880.42;1715123;82;21589;-59
2022/02/18 05:40:37;;;;;;;3.37;1.50;;;;;;;2.05;100.00;97874.28;1720472;82;21522;-59
2022/02/18 05:43:05;;;;;;;2.83;1.47;;;;;;;2.08;100.00;97879.12;1735963;82;21028;-59
2022/02/18 05:45:32;;;;;;;3.58;1.22;;;;;;;2.10;100.00;97884.21;1727665;82;21019;-58
2022/02/18 05:48:00;;;;;;;3.27;1.22;;;;;;;2.11;100.00;97899.25;1724299;82;21070;-59
2022/02/18 05:50:26;;;;;;;3.33;1.70;;;;;;;2.07;100.00;97901.66;1739125;82;21023;-59
2022/02/18 05:52:52;;;;;;;2.25;1.00;;;;;;;2.12;100.00;97910.27;1721987;82;21066;-59
2022/02/18 05:55:19;;;;;;;3.50;1.10;;;;;;;2.12;100.00;97917.80;1718258;82;21034;-59
2022/02/18 05:57:45;;;;;;;2.58;0.80;;;;;;;2.12;100.00;97914.30;1726472;82;21062;-59
2022/02/18 06:00:13;;;;;;;2.62;1.00;;;;;;;2.11;100.00;97921.54;1743790;82;21485;-58
2022/02/18 06:02:41;;;;;;;1.77;1.10;;;;;;;2.09;100.00;97920.98;1726459;82;21039;-59
2022/02/18 06:05:08;;;;;;;2.40;0.90;;;;;;;2.09;100.00;97929.59;1716179;83;21041;-59
2022/02/18 06:07:37;;;;;;;3.00;0.80;;;;;;;2.09;100.00;97928.25;1717125;82;21033;-59
2022/02/18 06:10:06;;;;;;;2.75;0.98;;;;;;;2.10;100.00;97928.50;1733528;82;20992;-59
2022/02/18 06:12:34;;;;;;;1.72;0.70;;;;;;;2.12;100.00;97939.27;1722651;82;21047;-59
2022/02/18 06:15:01;;;;;;;2.52;0.85;;;;;;;2.06;100.00;97947.00;1738496;82;21398;-60
2022/02/18 06:17:28;;;;;;;2.25;0.82;;;;;;;2.03;100.00;97950.73;1714787;82;21506;-58
2022/02/18 06:19:56;;;;;;;2.20;0.90;;;;;;;2.06;100.00;97953.70;1728057;82;20976;-59
2022/02/18 06:22:23;;;;;;;2.33;0.88;;;;;;;2.09;100.00;97959.11;1719949;82;21091;-58
2022/02/18 06:24:52;;;;;;;2.47;0.90;;;;;;;2.17;100.00;97963.44;1722005;82;21039;-58
2022/02/18 06:27:18;;;;;;;3.00;1.00;;;;;;;2.34;100.00;97968.61;1713233;82;21047;-58
2022/02/18 06:29:49;;;;;;;4.30;1.55;;;;;;;2.57;100.00;97972.75;1710543;82;21043;-59
2022/02/18 06:32:14;;;;;;;5.03;2.30;;;;;;;2.63;100.00;97978.41;1706808;82;21904;-59
2022/02/18 06:34:41;;;;;;;6.78;2.58;;;;;;;2.64;100.00;97986.22;1730540;82;20981;-60
2022/02/18 06:37:07;;;;;;;5.85;2.55;;;;;;;2.69;100.00;97985.44;1727161;82;21087;-59
2022/02/18 06:39:35;;;;;;;5.30;2.17;;;;;;;2.87;100.00;97983.06;1711577;82;20940;-59
2022/02/18 06:42:02;;;;;;;5.05;2.60;;;;;;;3.09;100.00;97986.88;1717057;82;21047;-59
2022/02/18 06:44:29;;;;;;;4.37;2.20;;;;;;;3.28;100.00;97983.97;1720894;82;21012;-59
2022/02/18 06:46:56;;;;;;;;;;;;;;;3.40;100.00;97988.54;1712891;82;21075;-59
2022/02/18 06:49:24;;;;;;;4.62;2.08;;;;;;;3.53;100.00;97976.99;1715750;82;20429;-59
2022/02/18 06:51:55;;;;;;;;;;;;;;;3.76;100.00;97992.05;1735996;82;21610;-60
2022/02/18 06:54:19;;;;;;;4.87;2.37;;;;;;;3.93;100.00;97993.92;1726432;82;20117;-60
2022/02/18 06:56:47;;;;;;;3.90;2.05;;;;;;;4.06;100.00;97996.61;1720798;82;20968;-59
2022/02/18 06:59:13;;;;;;;4.45;1.87;;;;;;;4.24;100.00;97999.27;1714942;82;21027;-60
2022/02/18 07:01:39;;;;;;;4.35;1.70;;;;;;;4.44;100.00;97999.21;1737225;82;21027;-59
2022/02/18 07:04:06;;;;;;;5.20;1.98;;;;;;;4.67;100.00;98005.88;1733273;82;21043;-60
2022/02/18 07:06:33;;;;;;;4.17;1.65;;;;;;;4.83;100.00;98002.84;1729561;82;21002;-59
2022/02/18 07:09:00;;;;;;;4.87;1.52;;;;;;;4.86;100.00;98004.98;1738062;82;20994;-59
2022/02/18 07:11:26;;;;;;;;;;;;;;;4.91;100.00;98012.25;1734389;82;21010;-59
2022/02/18 07:13:53;;;;;;;3.42;1.67;;;;;;;4.90;100.00;98014.14;1739157;82;20136;-60
2022/02/18 07:16:20;;;;;;;3.77;2.00;;;;;;;4.70;100.00;98015.58;1732801;82;21030;-61
2022/02/18 07:18:46;;;;;;;3.50;1.95;;;;;;;4.56;100.00;98029.91;1731758;82;21062;-60
2022/02/18 07:21:13;;;;;;;4.25;1.80;;;;;;;4.42;100.00;98032.37;1733988;82;21022;-60
2022/02/18 07:23:39;;;;;;;4.20;1.95;;;;;;;4.34;100.00;98032.38;1730078;82;21070;-59
2022/02/18 07:26:05;;;;;;;4.67;2.17;;;;;;;4.29;100.00;98036.42;1746188;80;21045;-60
2022/02/18 07:28:32;;;;;;;3.42;1.80;;;;;;;4.21;100.00;98039.69;1742051;82;21023;-60
2022/02/18 07:30:59;;;;;;;4.40;1.98;;;;;;;4.23;100.00;98042.09;1734637;82;21010;-60
2022/02/18 07:33:25;;;;;;;;;;;;;;;4.48;100.00;98042.86;1742459;80;21003;-60
2022/02/18 07:35:52;;;;;;;4.53;1.90;;;;;;;4.69;100.00;98047.65;1739160;82;20090;-60
2022/02/18 07:38:19;;;;;;;4.55;2.10;;;;;;;4.61;100.00;98046.86;1741644;82;21119;-59
2022/02/18 07:40:45;;;;;;;4.58;2.10;;;;;;;4.61;100.00;98051.43;1736992;80;21009;-60
2022/02/18 07:43:12;;;;;;;4.17;1.90;;;;;;;4.65;100.00;98047.11;1738901;80;21029;-59
2022/02/18 07:45:39;;;;;;;4.72;2.10;;;;;;;4.71;100.00;98050.08;1746192;80;21019;-61
2022/02/18 07:48:06;;;;;;;4.15;2.08;;;;;;;4.74;100.00;98058.96;1727723;81;21035;-62
2022/02/18 07:50:33;;;;;;;;;;;;;;;4.72;100.00;98052.48;1730693;82;20994;-61
2022/02/18 07:52:59;;;;;;;4.87;2.20;;;;;;;4.77;100.00;98059.75;1730576;82;20409;-61
2022/02/18 07:55:25;;;;;;;5.15;1.90;;;;;;;4.75;100.00;98052.47;1735680;82;21533;-62
2022/02/18 07:57:53;;;;;;;4.95;1.95;;;;;;;4.90;100.00;98064.55;1737339;82;21597;-61
2022/02/18 08:00:19;;;;;;;5.17;2.22;;;;;;;4.97;100.00;98065.06;1747485;80;21576;-59
2022/02/18 08:02:46;;;;;;;5.72;2.33;;;;;;;5.12;100.00;98070.94;1743737;82;21038;-59
2022/02/18 08:05:13;;;;;;;4.87;2.72;;;;;;;5.26;100.00;98072.77;1750471;82;20987;-60
2022/02/18 08:07:39;;;;;;;4.70;2.40;;;;;;;5.35;100.00;98069.73;1741645;82;21023;-60
2022/02/18 08:10:06;;;;;;;4.75;1.80;;;;;;;5.55;100.00;98075.58;1729162;82;21030;-61
2022/02/18 08:12:33;;;;;;;4.42;1.98;;;;;;;5.70;100.00;98077.38;1737372;82;21058;-60
2022/02/18 08:15:00;;;;;;;;;;;;;;;5.82;100.00;98075.13;1744463;80;20940;-61
2022/02/18 08:17:38;;;;;;;5.90;1.85;;;;;;;5.82;100.00;98077.28;1732955;80;20109;-60
2022/02/18 08:20:05;;;;;;;;;;;;;;;5.68;100.00;98083.05;1749524;82;20979;-60
2022/02/18 08:22:33;;;;;;;6.10;1.90;;;;;;;5.57;100.00;98085.55;1738899;82;20122;-62
2022/02/18 08:25:00;;;;;;;3.95;2.00;;;;;;;5.47;100.00;98094.52;1751966;82;21030;-60
2022/02/18 08:27:28;;;;;;;4.08;1.85;;;;;;;5.37;100.00;98089.17;1727915;82;21038;-60
2022/02/18 08:29:55;;;;;;;5.47;2.30;;;;;;;5.28;100.00;98098.13;1732524;82;21635;-60
2022/02/18 08:32:22;;;;;;;3.70;1.72;;;;;;;5.26;100.00;98098.40;1736849;82;21096;-60
2022/02/18 08:34:48;;;;;;;4.53;1.92;;;;;;;5.27;100.00;98111.34;1722706;83;20967;-59
2022/02/18 08:37:15;;;;;;;3.22;1.90;;;;;;;5.25;100.00;98106.22;1734176;82;21030;-60
2022/02/18 08:39:41;;;;;;;;;;;;;;;5.17;100.00;98116.25;1752973;82;21455;-60
2022/02/18 08:42:08;;;;;;;4.70;1.82;;;;;;;5.09;100.00;98118.70;1732518;82;20120;-60
2022/02/18 08:44:35;;;;;;;4.47;1.45;;;;;;;4.99;100.00;98124.95;1741866;82;20976;-60
2022/02/18 08:47:02;;;;;;;4.47;2.00;;;;;;;4.97;100.00;98121.16;1746899;82;21035;-59
2022/02/18 08:49:28;;;;;;;4.05;1.65;;;;;;;5.04;100.00;98126.27;1733866;82;20995;-59
2022/02/18 08:51:55;;;;;;;5.10;1.72;;;;;;;5.09;100.00;98131.66;1737108;80;21105;-60
2022/02/18 08:54:21;;;;;;;4.67;1.80;;;;;;;5.21;100.00;98124.60;1733429;82;21483;-60
2022/02/18 08:56:49;;;;;;;4.75;1.98;;;;;;;5.39;100.00;98128.01;1708169;82;21568;-59
2022/02/18 08:59:16;;;;;;;3.95;1.67;;;;;;;5.66;100.00;98131.67;1725475;82;21006;-61
2022/02/18 09:01:43;;;;;;;4.67;1.70;;;;;;;5.90;100.00;98133.44;1750046;82;21026;-60
2022/02/18 09:04:09;;;;;;;4.58;2.27;;;;;;;5.98;100.00;98138.79;1738357;82;20959;-60
2022/02/18 09:06:36;;;;;;;4.70;1.98;;;;;;;6.03;100.00;98137.39;1734973;81;21062;-60
2022/02/18 09:09:02;;;;;;;4.25;1.52;;;;;;;5.98;100.00;98137.44;1723345;82;20983;-60
2022/02/18 09:11:29;;;;;;;;;;;;;;;5.82;100.00;98139.39;1736984;82;21015;-60
2022/02/18 09:13:56;;;;;;;4.00;1.70;;;;;;;5.61;100.00;98146.53;1737679;82;20105;-59
2022/02/18 09:16:23;;;;;;;4.58;1.52;;;;;;;5.38;100.00;98151.52;1708538;82;21007;-60
2022/02/18 09:25:56;;;;;;;3.62;1.45;;;;;;;6.61;100.00;98153.69;1796213;78;22966;-61
2022/02/18 09:28:23;;;;;;;4.35;1.62;;;;;;;7.16;100.00;98158.53;1738573;80;21090;-61
2022/02/18 09:30:51;;;;;;;5.33;1.85;;;;;;;7.39;100.00;98155.03;1742372;82;21529;-61
2022/02/18 09:33:18;;;;;;;2.77;1.42;;;;;;;7.37;100.00;98165.88;1737774;82;21106;-61
2022/02/18 09:35:45;;;;;;;;;;;;;;;7.19;100.00;98165.30;1730683;82;21038;-61
2022/02/18 09:38:11;;;;;;;3.42;1.32;;;;;;;7.13;100.00;98170.48;1731973;82;20121;-62
2022/02/18 09:40:38;;;;;;;3.50;1.52;;;;;;;6.95;100.00;98170.13;1735869;82;21336;-61
2022/02/18 09:43:05;;;;;;;3.20;1.30;;;;;;;6.90;100.00;98180.20;1731959;82;21035;-61
2022/02/18 09:45:31;;;;;;;4.67;1.60;;;;;;;6.75;100.00;98173.58;1732711;82;21553;-61
2022/02/18 09:48:00;;;;;;;2.47;1.40;;;;;;;6.72;100.00;98176.31;1728825;82;21118;-61
2022/02/18 09:50:27;;;;;;;3.58;1.60;;;;;;;6.83;100.00;98172.97;1722845;82;21085;-61
2022/02/18 09:52:54;;;;;;;2.47;1.27;;;;;;;6.95;100.00;98172.02;1741614;82;21078;-61
2022/02/18 09:55:20;;;;;;;2.85;1.20;;;;;;;7.01;100.00;98180.36;1741722;82;21477;-60
2022/02/18 09:57:50;;;;;;;;;;;;;;;6.84;100.00;98165.91;1744878;82;21086;-60
2022/02/18 10:00:19;;;;;;;4.60;1.40;;;;;;;6.56;100.00;98176.70;1727395;82;20140;-62
2022/02/18 10:02:48;;;;;;;3.15;1.52;;;;;;;6.30;100.00;98181.53;1727112;82;21528;-61
2022/02/18 10:05:14;;;;;;;4.25;1.87;;;;;;;6.24;100.00;98176.69;1742617;82;21530;-61
2022/02/18 10:08:04;;;;;;;4.40;1.80;;;;;;;6.24;100.00;98183.44;1744988;82;21072;-61
2022/02/18 10:10:33;;;;;;;4.17;1.70;;;;;;;6.37;100.00;98189.58;1750572;81;21026;-62
2022/02/18 10:12:59;;;;;;;4.03;1.55;;;;;;;6.48;100.00;98183.55;1737309;82;21049;-62
2022/02/18 10:15:28;;;;;;;2.67;1.37;;;;;;;6.62;100.00;98183.70;1732202;82;21082;-62
2022/02/18 10:18:00;;;;;;;3.65;1.37;;;;;;;6.74;100.00;98187.64;1750867;82;21046;-62
2022/02/18 10:20:29;;;;;;;3.25;1.47;;;;;;;6.76;100.00;98181.42;1751658;82;21007;-61
2022/02/18 10:23:01;;;;;;;3.05;1.25;;;;;;;6.67;100.00;98187.70;1715886;83;21527;-59
2022/02/18 10:25:32;;;;;;;3.08;1.30;;;;;;;6.58;100.00;98192.92;1728866;82;21538;-61
2022/02/18 10:27:58;;;;;;;3.80;1.57;;;;;;;6.42;100.00;98211.15;1740963;82;21100;-61
2022/02/18 10:30:28;;;;;;;4.00;1.80;;;;;;;6.26;100.00;98219.11;1741170;82;21608;-61
2022/02/18 10:33:00;;;;;;;4.55;1.60;;;;;;;6.03;100.00;98227.07;1752937;82;21035;-61
2022/02/18 10:35:31;;;;;;;3.17;1.50;;;;;;;5.69;100.00;98240.45;1746651;82;21027;-61
2022/02/18 10:37:58;;;;;;;4.22;1.40;;;;;;;5.34;100.00;98236.80;1745462;82;21601;-61
2022/02/18 10:40:25;;;;;;;2.83;1.37;;;;;;;5.10;100.00;98242.48;1722985;82;21019;-61
2022/02/18 10:42:54;;;;;;;4.33;1.80;;;;;;;5.03;100.00;98243.88;1740399;82;21049;-60
2022/02/18 10:45:28;;;;;;;3.20;1.50;;;;;;;5.12;100.00;98247.08;1743457;82;21043;-60
2022/02/18 10:48:11;;;;;;;3.02;1.60;;;;;;;5.34;100.00;98254.87;1752352;82;21039;-61
2022/02/18 10:50:38;;;;;;;5.22;2.10;;;;;;;5.58;100.00;98251.83;1751068;82;21039;-61
2022/02/18 10:53:20;;;;;;;4.22;1.98;;;;;;;5.62;100.00;98255.59;1713284;82;21102;-61
2022/02/18 10:55:58;;;;;;;5.28;2.42;;;;;;;5.61;100.00;98261.25;1734912;82;21572;-61
2022/02/18 10:58:32;;;;;;;1.90;1.00;;;;;;;5.54;100.00;98273.70;1722359;83;21378;-61
2022/02/18 11:01:21;;;;;;;2.12;0.82;;;;;;;5.41;100.00;98289.13;1722656;82;21072;-61
2022/02/18 11:03:50;;;;;;;1.35;0.70;;;;;;;5.00;100.00;98301.30;1730578;82;21019;-61
2022/02/18 11:06:29;;;;;;;2.02;0.90;;;;;;;4.62;100.00;98298.31;1743038;82;21078;-60
2022/02/18 11:09:05;;;;;;;2.72;1.12;;;;;;;4.35;100.00;98288.59;1733600;82;21023;-60
2022/02/18 11:11:46;;;;;;;3.00;1.25;;;;;;;4.10;100.00;98286.36;1746504;82;21081;-60
2022/02/18 11:14:16;;;;;;;3.40;1.52;;;;;;;4.03;100.00;98294.70;1736483;82;21530;-61
2022/02/18 11:16:55;;;;;;;4.20;1.70;;;;;;;4.05;100.00;98301.14;1738329;82;21059;-61
2022/02/18 11:19:22;;;;;;;3.47;1.92;;;;;;;3.99;100.00;98305.72;1722599;83;21050;-61
2022/02/18 11:21:49;;;;;;;3.35;1.77;;;;;;;3.98;100.00;98304.09;1722692;82;21048;-60
2022/02/18 11:24:17;;;;;;;3.08;1.60;;;;;;;4.01;100.00;98310.29;1734199;82;20963;-61
2022/02/18 11:26:44;;;;;;;2.80;1.37;;;;;;;4.04;100.00;98310.32;1736372;81;20990;-64
2022/02/18 11:29:12;;;;;;;2.05;1.00;;;;;;;4.07;100.00;98306.56;1746662;82;20968;-60
2022/02/18 11:31:43;;;;;;;3.02;1.17;;;;;;;4.10;100.00;98311.95;1746567;82;20932;-60
2022/02/18 11:34:27;;;;;;;3.17;1.30;;;;;;;4.16;100.00;98309.53;1740120;82;20949;-60
2022/02/18 11:37:44;;;;;;;3.90;1.77;;;;;;;4.22;100.00;98314.66;1731320;82;21118;-60
2022/02/18 11:40:37;;;;;;;5.53;2.65;;;;;;;4.37;100.00;98320.11;1726241;82;21034;-60
2022/02/18 11:43:26;;;;;;;5.03;2.70;;;;;;;4.44;100.00;98315.27;1735516;82;21082;-60
2022/02/18 11:46:03;;;;;;;5.87;2.52;;;;;;;4.57;100.00;98322.02;1737934;82;21047;-60
2022/02/18 11:48:38;;;;;;;5.25;2.50;;;;;;;4.74;100.00;98321.80;1740254;82;21526;-60
2022/02/18 11:51:11;;;;;;;6.60;2.62;;;;;;;4.91;100.00;98331.24;1746419;82;21365;-60